Time;durP1;ratioP1;P1;durP2;ratioP2;P2;SDS_P1;SDS_P2;PMS_P1;PMS_P2;Temp;Humidity;BMP_temperature;BMP_pressure;BME280_temperature;BME280_humidity;BME280_pressure;Samples;Min_cycle;Max_cycle;Signal;HPM_P1;HPM_P2
2021/03/21 00:33:34;;;;;;;5.83;3.17;;;;;;;;;;4766572;27;9277244;-56
2021/03/21 00:36:01;;;;;;;11.40;4.63;;;;;;;;;;5090226;28;20025;-56
2021/03/21 00:38:30;;;;;;;7.03;3.40;;;;;;;;;;5090128;28;20028;-56
2021/03/21 00:40:58;;;;;;;6.70;2.60;;;;;;;;;;5090291;28;20048;-55
2021/03/21 00:43:25;;;;;;;14.27;3.03;;;;;;;;;;5090029;28;20027;-56
2021/03/21 00:45:52;;;;;;;11.90;2.63;;;;;;;;;;5090064;28;20493;-56
2021/03/21 00:48:21;;;;;;;8.33;2.53;;;;;;;;;;5090058;28;20029;-56
2021/03/21 00:50:47;;;;;;;8.70;2.70;;;;;;;;;;5089885;28;20028;-55
2021/03/21 00:53:15;;;;;;;10.30;2.60;;;;;;;;;;5089792;28;20371;-56
2021/03/21 00:55:42;;;;;;;7.53;3.03;;;;;;;;;;5089775;28;20445;-56
2021/03/21 00:58:09;;;;;;;12.37;2.97;;;;;;;;;;5089751;28;20107;-56
2021/03/21 01:00:37;;;;;;;8.17;2.37;;;;;;;;;;5089646;28;20050;-56
2021/03/21 01:03:04;;;;;;;3.70;1.93;;;;;;;;;;5089606;28;20028;-56
2021/03/21 01:05:33;;;;;;;7.00;1.87;;;;;;;;;;5089583;28;20032;-55
2021/03/21 01:08:01;;;;;;;7.33;2.03;;;;;;;;;;5089714;28;20107;-55
2021/03/21 01:10:32;;;;;;;7.13;2.30;;;;;;;;;;5089522;28;20035;-56
2021/03/21 01:12:59;;;;;;;7.57;2.17;;;;;;;;;;5089467;28;20024;-56
2021/03/21 01:15:27;;;;;;;5.70;2.40;;;;;;;;;;5089615;28;20028;-55
2021/03/21 01:17:54;;;;;;;5.37;2.20;;;;;;;;;;5089489;28;20020;-55
2021/03/21 01:20:22;;;;;;;7.23;2.17;;;;;;;;;;5089463;28;20020;-55
2021/03/21 01:22:49;;;;;;;12.07;3.77;;;;;;;;;;5089328;28;20098;-56
2021/03/21 01:25:19;;;;;;;7.50;2.67;;;;;;;;;;5089322;28;20429;-56
2021/03/21 01:27:45;;;;;;;9.70;2.73;;;;;;;;;;5089164;28;20031;-56
2021/03/21 01:30:13;;;;;;;8.73;2.00;;;;;;;;;;5089143;28;20089;-56
2021/03/21 01:32:39;;;;;;;10.27;2.40;;;;;;;;;;5084478;28;20052;-56
2021/03/21 01:35:07;;;;;;;21.80;2.87;;;;;;;;;;5075641;28;20043;-56
2021/03/21 01:37:34;;;;;;;7.43;2.33;;;;;;;;;;5057701;28;20024;-56
2021/03/21 01:40:01;;;;;;;9.20;2.40;;;;;;;;;;5075460;28;20028;-56
2021/03/21 01:42:35;;;;;;;8.77;2.60;;;;;;;;;;5075437;28;20029;-56
2021/03/21 01:45:03;;;;;;;7.05;2.13;;;;;;;;;;5075391;28;20025;-56
2021/03/21 01:47:39;;;;;;;5.73;2.27;;;;;;;;;;5075543;28;20029;-56
2021/03/21 01:50:28;;;;;;;6.13;2.73;;;;;;;;;;5075381;28;20024;-56
2021/03/21 01:52:55;;;;;;;5.90;2.40;;;;;;;;;;5075376;28;20110;-56
2021/03/21 01:55:23;;;;;;;6.87;2.27;;;;;;;;;;5075161;28;20036;-56
2021/03/21 01:57:51;;;;;;;9.07;2.70;;;;;;;;;;5075170;28;20020;-56
2021/03/21 02:00:18;;;;;;;9.13;2.80;;;;;;;;;;5075119;28;20028;-56
2021/03/21 02:02:45;;;;;;;5.57;2.40;;;;;;;;;;5074921;28;20475;-56
2021/03/21 02:05:12;;;;;;;10.37;3.23;;;;;;;;;;5075088;28;20028;-56
2021/03/21 02:07:42;;;;;;;9.00;2.40;;;;;;;;;;5074904;28;20094;-56
2021/03/21 02:10:13;;;;;;;7.67;2.70;;;;;;;;;;5074889;28;20028;-56
2021/03/21 02:12:40;;;;;;;11.67;3.33;;;;;;;;;;5074920;28;20075;-56
2021/03/21 02:15:24;;;;;;;15.87;6.83;;;;;;;;;;5074937;28;20025;-56
2021/03/21 02:17:54;;;;;;;22.52;10.38;;;;;;;;;;5056876;28;20032;-56
2021/03/21 02:20:39;;;;;;;20.07;11.10;;;;;;;;;;5074882;28;20032;-56
2021/03/21 02:23:06;;;;;;;16.48;7.07;;;;;;;;;;5074834;28;20024;-56
2021/03/21 02:25:52;;;;;;;10.90;4.60;;;;;;;;;;5074795;28;20071;-56
2021/03/21 02:28:33;;;;;;;8.50;4.83;;;;;;;;;;5074657;28;20078;-56
2021/03/21 02:31:05;;;;;;;9.47;3.23;;;;;;;;;;5074498;28;20112;-56
2021/03/21 02:33:34;;;;;;;12.67;3.70;;;;;;;;;;5073063;28;20045;-56
2021/03/21 02:36:04;;;;;;;8.40;3.23;;;;;;;;;;5074372;28;20035;-56
2021/03/21 02:38:44;;;;;;;5.93;2.87;;;;;;;;;;5074392;28;20426;-56
2021/03/21 02:41:14;;;;;;;6.43;2.90;;;;;;;;;;5074243;28;20111;-56
2021/03/21 02:43:43;;;;;;;5.80;2.90;;;;;;;;;;5074128;28;20452;-56
2021/03/21 02:46:29;;;;;;;6.33;2.33;;;;;;;;;;5073510;28;20021;-55
2021/03/21 02:49:15;;;;;;;7.73;2.07;;;;;;;;;;5074565;28;20100;-55
2021/03/21 02:51:45;;;;;;;6.00;1.87;;;;;;;;;;5074130;28;20055;-56
2021/03/21 02:54:11;;;;;;;5.70;2.00;;;;;;;;;;5073996;28;20028;-55
2021/03/21 02:56:41;;;;;;;8.57;3.10;;;;;;;;;;5073984;28;20025;-55
2021/03/21 02:59:23;;;;;;;6.40;2.20;;;;;;;;;;5073941;28;20040;-55
2021/03/21 03:02:10;;;;;;;3.13;1.70;;;;;;;;;;5073918;28;20486;-56
2021/03/21 03:04:39;;;;;;;6.27;1.90;;;;;;;;;;5073522;28;20103;-55
2021/03/21 03:07:11;;;;;;;5.40;1.87;;;;;;;;;;5073874;28;20052;-55
2021/03/21 03:09:44;;;;;;;5.80;2.33;;;;;;;;;;5074170;28;20490;-55
2021/03/21 03:12:19;;;;;;;9.00;3.03;;;;;;;;;;5073576;28;20086;-55
2021/03/21 03:14:47;;;;;;;11.30;6.00;;;;;;;;;;5073646;28;20059;-55
2021/03/21 03:17:17;;;;;;;13.13;4.30;;;;;;;;;;5073684;28;20043;-56
2021/03/21 03:19:49;;;;;;;8.27;3.90;;;;;;;;;;5073537;28;20086;-56
2021/03/21 03:22:21;;;;;;;4.77;2.83;;;;;;;;;;5073340;28;20067;-56
2021/03/21 03:25:10;;;;;;;5.20;2.70;;;;;;;;;;5073394;28;20082;-56
2021/03/21 03:27:43;;;;;;;9.17;3.23;;;;;;;;;;5073504;28;20032;-56
2021/03/21 03:30:19;;;;;;;8.13;2.60;;;;;;;;;;5073352;28;20032;-56
2021/03/21 03:32:46;;;;;;;7.57;2.50;;;;;;;;;;5073434;28;20041;-56
2021/03/21 03:35:15;;;;;;;3.47;1.90;;;;;;;;;;5073281;28;20028;-56
2021/03/21 03:37:42;;;;;;;5.40;2.27;;;;;;;;;;5073234;28;20094;-56
2021/03/21 03:40:10;;;;;;;6.90;2.20;;;;;;;;;;5073195;28;20060;-56
2021/03/21 03:42:46;;;;;;;9.50;2.30;;;;;;;;;;5073143;28;20055;-56
2021/03/21 03:45:23;;;;;;;6.50;2.30;;;;;;;;;;5073218;28;20441;-56
2021/03/21 03:48:09;;;;;;;4.97;1.70;;;;;;;;;;5073202;28;20024;-56
2021/03/21 03:50:45;;;;;;;5.23;2.80;;;;;;;;;;5073444;28;20368;-56
2021/03/21 03:53:20;;;;;;;5.90;2.13;;;;;;;;;;5073049;28;20033;-56
2021/03/21 03:55:47;;;;;;;4.50;2.08;;;;;;;;;;5072788;28;20028;-56
2021/03/21 03:58:16;;;;;;;7.03;2.47;;;;;;;;;;5072915;28;20032;-56
2021/03/21 04:00:49;;;;;;;8.03;3.50;;;;;;;;;;5072886;28;20033;-55
2021/03/21 04:03:21;;;;;;;5.33;2.53;;;;;;;;;;5072990;28;20028;-56
2021/03/21 04:05:57;;;;;;;7.67;1.90;;;;;;;;;;5072943;28;20394;-55
2021/03/21 04:08:28;;;;;;;6.50;2.10;;;;;;;;;;5072884;28;20144;-57
2021/03/21 04:11:04;;;;;;;7.97;2.50;;;;;;;;;;5072962;28;20482;-55
2021/03/21 04:13:30;;;;;;;7.50;2.10;;;;;;;;;;5072811;28;20419;-55
2021/03/21 04:15:58;;;;;;;6.97;2.40;;;;;;;;;;5072835;28;20493;-55
2021/03/21 04:18:28;;;;;;;6.83;2.10;;;;;;;;;;5072947;28;20029;-55
2021/03/21 04:21:00;;;;;;;4.83;1.80;;;;;;;;;;5072794;28;20492;-55
2021/03/21 04:23:47;;;;;;;6.10;2.10;;;;;;;;;;5072751;28;20111;-55
2021/03/21 04:26:16;;;;;;;8.97;2.80;;;;;;;;;;5059283;28;20506;-55
2021/03/21 04:28:47;;;;;;;9.20;2.27;;;;;;;;;;5072746;28;20093;-55
2021/03/21 04:31:15;;;;;;;6.57;1.90;;;;;;;;;;5054667;28;20494;-54
2021/03/21 04:34:02;;;;;;;9.80;2.47;;;;;;;;;;5072787;28;20129;-57
2021/03/21 04:36:31;;;;;;;7.37;2.17;;;;;;;;;;5072914;28;20032;-55
2021/03/21 04:38:59;;;;;;;8.67;2.47;;;;;;;;;;5072650;28;20083;-55
2021/03/21 04:41:32;;;;;;;6.97;2.10;;;;;;;;;;5072489;28;20038;-55
2021/03/21 04:44:12;;;;;;;5.20;2.20;;;;;;;;;;5072557;28;20381;-55
2021/03/21 04:46:41;;;;;;;8.90;2.77;;;;;;;;;;5072665;28;20025;-55
2021/03/21 04:49:08;;;;;;;12.53;3.37;;;;;;;;;;5072505;28;20021;-55
2021/03/21 04:51:40;;;;;;;8.20;3.03;;;;;;;;;;5072473;28;20028;-55
2021/03/21 04:54:18;;;;;;;7.80;2.93;;;;;;;;;;5072443;28;20477;-55
2021/03/21 04:56:54;;;;;;;6.87;3.37;;;;;;;;;;5072461;28;20023;-55
2021/03/21 04:59:23;;;;;;;5.57;2.60;;;;;;;;;;5072446;28;20082;-55
2021/03/21 05:01:56;;;;;;;7.03;2.50;;;;;;;;;;5072291;28;20039;-55
2021/03/21 05:04:25;;;;;;;11.87;3.00;;;;;;;;;;5072241;28;20070;-55
2021/03/21 05:06:51;;;;;;;9.50;2.97;;;;;;;;;;5072302;28;20039;-55
2021/03/21 05:09:23;;;;;;;7.10;2.80;;;;;;;;;;5075423;28;20017;-55
2021/03/21 05:11:55;;;;;;;7.57;3.23;;;;;;;;;;5076043;28;20028;-55
2021/03/21 05:14:26;;;;;;;5.87;2.53;;;;;;;;;;5076024;28;20095;-56
2021/03/21 05:17:00;;;;;;;14.27;3.27;;;;;;;;;;5075859;28;20089;-55
2021/03/21 05:19:45;;;;;;;12.18;4.45;;;;;;;;;;5075873;28;20394;-56
2021/03/21 05:22:15;;;;;;;6.28;3.50;;;;;;;;;;5075693;28;20040;-55
2021/03/21 05:24:46;;;;;;;12.73;3.90;;;;;;;;;;5075910;28;20013;-56
2021/03/21 05:27:15;;;;;;;10.97;3.53;;;;;;;;;;5076060;28;20040;-56
2021/03/21 05:29:48;;;;;;;9.30;3.53;;;;;;;;;;5075638;28;20096;-56
2021/03/21 05:32:29;;;;;;;8.03;2.60;;;;;;;;;;5076266;28;20048;-56
2021/03/21 05:34:57;;;;;;;7.17;2.50;;;;;;;;;;5075807;28;20270;-55
2021/03/21 05:37:42;;;;;;;6.83;3.27;;;;;;;;;;5058462;28;20716;-56
2021/03/21 05:40:35;;;;;;;6.40;2.75;;;;;;;;;;5076488;28;20289;-55
2021/03/21 05:43:14;;;;;;;11.53;4.17;;;;;;;;;;5076222;28;20032;-56
2021/03/21 05:45:40;;;;;;;7.50;3.00;;;;;;;;;;5076531;28;20246;-56
2021/03/21 05:48:10;;;;;;;6.20;2.97;;;;;;;;;;5076048;28;20341;-55
2021/03/21 05:50:40;;;;;;;7.93;2.93;;;;;;;;;;5076245;28;20285;-56
2021/03/21 05:53:07;;;;;;;5.70;2.80;;;;;;;;;;5076036;28;20261;-55
2021/03/21 05:55:46;;;;;;;9.83;2.67;;;;;;;;;;5076073;28;20246;-56
2021/03/21 05:58:31;;;;;;;9.10;2.80;;;;;;;;;;5076049;28;20337;-55
2021/03/21 06:01:24;;;;;;;10.35;3.10;;;;;;;;;;5075988;28;20277;-56
2021/03/21 06:04:02;;;;;;;7.83;2.63;;;;;;;;;;5045365;28;20033;-56
2021/03/21 06:06:29;;;;;;;9.87;3.00;;;;;;;;;;5075884;28;20249;-55
2021/03/21 06:09:02;;;;;;;7.37;3.00;;;;;;;;;;5075262;28;20249;-56
2021/03/21 06:11:47;;;;;;;5.87;2.30;;;;;;;;;;5075045;28;20253;-55
2021/03/21 06:14:14;;;;;;;12.27;4.63;;;;;;;;;;5075068;28;20253;-56
2021/03/21 06:16:59;;;;;;;8.23;3.63;;;;;;;;;;5074865;28;20102;-55
2021/03/21 06:19:38;;;;;;;11.57;3.72;;;;;;;;;;5074748;28;20245;-55
2021/03/21 06:22:07;;;;;;;7.83;3.67;;;;;;;;;;5074613;28;20487;-56
2021/03/21 06:25:06;;;;;;;9.63;3.60;;;;;;;;;;5074741;28;20256;-56
2021/03/21 06:27:51;;;;;;;9.10;3.17;;;;;;;;;;5030546;28;20632;-56
2021/03/21 06:30:32;;;;;;;8.18;2.97;;;;;;;;;;5074689;28;20254;-56
2021/03/21 06:33:17;;;;;;;9.53;2.83;;;;;;;;;;5074739;28;20052;-56
2021/03/21 06:36:02;;;;;;;6.88;2.53;;;;;;;;;;5074521;28;20696;-55
2021/03/21 06:38:36;;;;;;;7.95;3.25;;;;;;;;;;5074449;28;20029;-55
2021/03/21 06:41:15;;;;;;;5.53;2.53;;;;;;;;;;5074423;28;20033;-56
2021/03/21 06:43:42;;;;;;;9.57;2.37;;;;;;;;;;5074187;28;20042;-56
2021/03/21 06:46:15;;;;;;;6.73;2.40;;;;;;;;;;5074508;28;20248;-55
2021/03/21 06:48:53;;;;;;;6.10;2.20;;;;;;;;;;5074142;28;20666;-55
2021/03/21 06:51:39;;;;;;;4.20;2.53;;;;;;;;;;5074161;28;20246;-55
2021/03/21 06:54:31;;;;;;;4.63;2.20;;;;;;;;;;5074183;28;20245;-56
2021/03/21 06:57:06;;;;;;;6.23;2.00;;;;;;;;;;5074037;28;20063;-55
2021/03/21 06:59:51;;;;;;;8.47;2.47;;;;;;;;;;5073950;28;20322;-55
2021/03/21 07:02:21;;;;;;;9.52;2.83;;;;;;;;;;5073776;28;20293;-55
2021/03/21 07:05:13;;;;;;;8.83;2.77;;;;;;;;;;5073971;28;20073;-55
2021/03/21 07:07:58;;;;;;;5.43;2.70;;;;;;;;;;5073908;28;20769;-55
2021/03/21 07:10:43;;;;;;;6.53;2.67;;;;;;;;;;5073770;28;20782;-55
2021/03/21 07:13:16;;;;;;;6.13;2.55;;;;;;;;;;5073731;28;20028;-55
2021/03/21 07:15:58;;;;;;;7.17;2.33;;;;;;;;;;5073664;28;20020;-55
2021/03/21 07:18:44;;;;;;;7.43;2.47;;;;;;;;;;5073671;28;20262;-55
2021/03/21 07:21:33;;;;;;;5.15;2.25;;;;;;;;;;5073450;28;20283;-55
2021/03/21 07:24:00;;;;;;;7.63;2.20;;;;;;;;;;5073491;28;20450;-55
2021/03/21 07:26:42;;;;;;;3.20;1.87;;;;;;;;;;5073580;28;20241;-55
2021/03/21 07:29:28;;;;;;;5.60;1.90;;;;;;;;;;5073427;28;20253;-55
2021/03/21 07:32:01;;;;;;;3.30;1.80;;;;;;;;;;5059090;28;20269;-55
2021/03/21 07:34:46;;;;;;;4.13;2.10;;;;;;;;;;5072798;28;20293;-55
2021/03/21 07:37:33;;;;;;;7.72;1.67;;;;;;;;;;5073377;28;20253;-55
2021/03/21 07:40:12;;;;;;;4.27;2.00;;;;;;;;;;5073125;28;20036;-55
2021/03/21 07:42:42;;;;;;;3.40;2.17;;;;;;;;;;5073050;28;20839;-55
2021/03/21 07:45:21;;;;;;;8.93;3.03;;;;;;;;;;5073227;28;20785;-55
2021/03/21 07:47:57;;;;;;;8.60;2.90;;;;;;;;;;5073099;28;20258;-55
2021/03/21 07:50:26;;;;;;;6.27;2.43;;;;;;;;;;5073107;28;20252;-55
2021/03/21 07:52:53;;;;;;;4.63;2.00;;;;;;;;;;5073001;28;20813;-55
2021/03/21 07:55:25;;;;;;;3.73;1.80;;;;;;;;;;5073365;28;20253;-55
2021/03/21 07:58:01;;;;;;;5.93;2.07;;;;;;;;;;5073008;28;20249;-55
2021/03/21 08:00:28;;;;;;;5.03;1.90;;;;;;;;;;5073304;28;20245;-55
2021/03/21 08:03:09;;;;;;;2.97;1.70;;;;;;;;;;5072890;28;20853;-55
2021/03/21 08:05:35;;;;;;;3.93;1.83;;;;;;;;;;5073000;28;20260;-55
2021/03/21 08:08:02;;;;;;;6.53;2.53;;;;;;;;;;5073002;28;20253;-55
2021/03/21 08:10:35;;;;;;;4.27;2.30;;;;;;;;;;5072831;28;20254;-55
2021/03/21 08:13:08;;;;;;;9.90;2.47;;;;;;;;;;5072767;28;20260;-55
2021/03/21 08:15:37;;;;;;;5.47;2.20;;;;;;;;;;5072840;28;20257;-55
2021/03/21 08:18:16;;;;;;;6.77;2.60;;;;;;;;;;5072779;28;20288;-55
2021/03/21 08:20:49;;;;;;;4.33;2.63;;;;;;;;;;5072648;28;20261;-55
2021/03/21 08:23:34;;;;;;;5.00;2.20;;;;;;;;;;5072928;28;20299;-55
2021/03/21 08:26:02;;;;;;;4.38;2.63;;;;;;;;;;5072731;28;20262;-55
2021/03/21 08:28:37;;;;;;;5.43;2.40;;;;;;;;;;5072665;28;20383;-55
2021/03/21 08:31:06;;;;;;;8.55;2.30;;;;;;;;;;5072637;28;20285;-55
2021/03/21 08:33:43;;;;;;;7.60;1.97;;;;;;;;;;5072839;28;20130;-55
2021/03/21 08:36:23;;;;;;;7.77;2.10;;;;;;;;;;5072720;28;20246;-55
2021/03/21 08:38:53;;;;;;;5.13;2.50;;;;;;;;;;5072532;28;20692;-55
2021/03/21 08:41:20;;;;;;;7.00;1.70;;;;;;;;;;5072595;28;20387;-55
2021/03/21 08:43:47;;;;;;;6.43;2.17;;;;;;;;;;5057073;28;20289;-55
2021/03/21 08:46:19;;;;;;;3.77;2.30;;;;;;;;;;5076567;28;20281;-55
2021/03/21 08:48:46;;;;;;;5.50;1.87;;;;;;;;;;5076556;28;20285;-55
2021/03/21 08:51:13;;;;;;;4.77;2.50;;;;;;;;;;5077124;28;20262;-55
2021/03/21 08:53:42;;;;;;;5.70;2.20;;;;;;;;;;5076458;28;20340;-55
2021/03/21 08:56:34;;;;;;;4.47;1.70;;;;;;;;;;5076471;28;20303;-55
2021/03/21 08:59:01;;;;;;;3.23;1.67;;;;;;;;;;5067463;28;20265;-55
2021/03/21 09:01:28;;;;;;;5.37;2.60;;;;;;;;;;5076002;28;20281;-55
2021/03/21 09:04:10;;;;;;;5.27;2.20;;;;;;;;;;5076175;28;20358;-55
2021/03/21 09:06:38;;;;;;;5.33;1.80;;;;;;;;;;5076251;28;20249;-55
2021/03/21 09:09:16;;;;;;;4.87;1.70;;;;;;;;;;5076232;28;20283;-55
2021/03/21 09:11:44;;;;;;;8.10;2.43;;;;;;;;;;5075943;28;20708;-55
2021/03/21 09:14:14;;;;;;;6.20;2.23;;;;;;;;;;5075939;28;20327;-55
2021/03/21 09:16:59;;;;;;;6.73;2.13;;;;;;;;;;5075944;28;20253;-55
2021/03/21 09:19:28;;;;;;;8.30;2.58;;;;;;;;;;5075930;28;20292;-55
2021/03/21 09:21:55;;;;;;;8.03;2.93;;;;;;;;;;5075825;28;20043;-55
2021/03/21 09:24:24;;;;;;;8.27;2.00;;;;;;;;;;5075757;28;20260;-55
2021/03/21 09:26:52;;;;;;;5.13;1.90;;;;;;;;;;5075809;28;20340;-55
2021/03/21 09:29:35;;;;;;;3.63;1.93;;;;;;;;;;5075666;28;20306;-55
2021/03/21 09:32:03;;;;;;;5.63;2.23;;;;;;;;;;5075394;28;20277;-55
2021/03/21 09:34:30;;;;;;;5.07;2.03;;;;;;;;;;5075910;28;20320;-55
2021/03/21 09:36:57;;;;;;;4.10;1.83;;;;;;;;;;5075541;28;20257;-55
2021/03/21 09:39:34;;;;;;;5.80;2.13;;;;;;;;;;5075547;28;20250;-55
2021/03/21 09:42:02;;;;;;;3.70;1.60;;;;;;;;;;5075344;28;20786;-55
2021/03/21 09:44:32;;;;;;;5.37;2.07;;;;;;;;;;5075497;28;20252;-55
2021/03/21 09:47:07;;;;;;;4.20;1.50;;;;;;;;;;5075452;28;20253;-55
2021/03/21 09:49:37;;;;;;;7.13;2.50;;;;;;;;;;5057553;28;20265;-55
2021/03/21 09:52:13;;;;;;;4.43;1.87;;;;;;;;;;5075276;28;20264;-55
2021/03/21 09:54:45;;;;;;;4.37;2.20;;;;;;;;;;5074815;28;20245;-55
2021/03/21 09:57:26;;;;;;;4.07;2.00;;;;;;;;;;5075221;28;20253;-55
2021/03/21 09:59:56;;;;;;;4.53;1.83;;;;;;;;;;5075167;28;20253;-55
2021/03/21 10:02:43;;;;;;;9.63;2.53;;;;;;;;;;5074968;28;20810;-55
2021/03/21 10:05:25;;;;;;;3.83;1.90;;;;;;;;;;5075233;28;20336;-55
2021/03/21 10:08:10;;;;;;;4.10;1.67;;;;;;;;;;5074976;28;20250;-55
2021/03/21 10:10:42;;;;;;;3.45;2.05;;;;;;;;;;5074970;28;20608;-55
2021/03/21 10:13:08;;;;;;;4.80;1.90;;;;;;;;;;5074854;28;20433;-55
2021/03/21 10:15:53;;;;;;;3.37;1.60;;;;;;;;;;5074992;28;20324;-55
2021/03/21 10:18:38;;;;;;;3.17;1.60;;;;;;;;;;5074854;28;20253;-55
2021/03/21 10:21:06;;;;;;;5.05;1.83;;;;;;;;;;5074741;28;20082;-55
2021/03/21 10:23:51;;;;;;;4.63;1.93;;;;;;;;;;5074889;28;20387;-55
2021/03/21 10:26:19;;;;;;;3.17;1.70;;;;;;;;;;5075052;28;20257;-55
2021/03/21 10:28:49;;;;;;;8.00;2.03;;;;;;;;;;5074701;28;20036;-55
2021/03/21 10:31:26;;;;;;;2.87;1.57;;;;;;;;;;5074628;28;20691;-55
2021/03/21 10:33:57;;;;;;;4.87;1.87;;;;;;;;;;5074886;28;20289;-55
2021/03/21 10:36:43;;;;;;;5.00;1.70;;;;;;;;;;5074461;28;20739;-55
2021/03/21 10:39:24;;;;;;;4.23;2.00;;;;;;;;;;5074666;28;20246;-55
2021/03/21 10:41:53;;;;;;;5.33;1.60;;;;;;;;;;5074202;28;20294;-55
2021/03/21 10:44:31;;;;;;;2.80;1.40;;;;;;;;;;5074319;28;20332;-55
2021/03/21 10:47:03;;;;;;;4.43;1.90;;;;;;;;;;5074230;28;20242;-55
2021/03/21 10:49:47;;;;;;;4.10;1.90;;;;;;;;;;5074226;28;20253;-54
2021/03/21 10:52:23;;;;;;;5.07;1.90;;;;;;;;;;5074501;28;20307;-55
2021/03/21 10:55:10;;;;;;;5.70;1.60;;;;;;;;;;5074253;28;20794;-55
2021/03/21 10:57:40;;;;;;;5.73;2.37;;;;;;;;;;5060439;28;20293;-55
2021/03/21 11:00:22;;;;;;;2.43;1.37;;;;;;;;;;5074060;28;20257;-55
2021/03/21 11:03:10;;;;;;;5.83;2.10;;;;;;;;;;5073788;28;20304;-55
2021/03/21 11:05:45;;;;;;;3.77;1.47;;;;;;;;;;5073372;28;20261;-55
2021/03/21 11:08:14;;;;;;;3.43;1.57;;;;;;;;;;5073961;28;20303;-55
2021/03/21 11:10:43;;;;;;;3.67;2.10;;;;;;;;;;5073810;28;20252;-55
2021/03/21 11:13:11;;;;;;;3.37;1.70;;;;;;;;;;5074001;28;20705;-55
2021/03/21 11:15:52;;;;;;;4.00;1.50;;;;;;;;;;5073561;28;20253;-55
2021/03/21 11:18:25;;;;;;;3.63;1.93;;;;;;;;;;5073743;28;20348;-55
2021/03/21 11:21:05;;;;;;;5.20;1.90;;;;;;;;;;5073469;28;20245;-55
2021/03/21 11:23:37;;;;;;;3.53;1.77;;;;;;;;;;5073585;28;20284;-55
2021/03/21 11:26:18;;;;;;;3.47;1.93;;;;;;;;;;5073478;28;20314;-55
2021/03/21 11:28:45;;;;;;;4.17;1.60;;;;;;;;;;5073532;28;20265;-55
2021/03/21 11:31:15;;;;;;;3.17;1.70;;;;;;;;;;5073235;28;20781;-55
2021/03/21 11:33:43;;;;;;;3.40;1.70;;;;;;;;;;5055951;28;20293;-55
2021/03/21 11:36:10;;;;;;;3.63;1.67;;;;;;;;;;5073316;28;20282;-55
2021/03/21 11:38:39;;;;;;;4.53;2.00;;;;;;;;;;5073252;28;20249;-55
2021/03/21 11:41:15;;;;;;;3.90;1.70;;;;;;;;;;5073039;28;20252;-55
2021/03/21 11:43:42;;;;;;;4.43;1.60;;;;;;;;;;5073282;28;20253;-55
2021/03/21 11:46:14;;;;;;;4.30;1.90;;;;;;;;;;5073226;28;20250;-55
2021/03/21 11:48:41;;;;;;;7.13;1.70;;;;;;;;;;5073141;28;20682;-55
2021/03/21 11:51:11;;;;;;;3.43;1.50;;;;;;;;;;5073081;28;20751;-54
2021/03/21 11:53:39;;;;;;;6.17;1.80;;;;;;;;;;5073091;28;20329;-54
2021/03/21 11:56:11;;;;;;;6.50;2.00;;;;;;;;;;5073078;28;20435;-55
2021/03/21 11:58:56;;;;;;;4.23;1.80;;;;;;;;;;5073137;28;20328;-55
2021/03/21 12:01:32;;;;;;;3.38;1.80;;;;;;;;;;5072863;28;20356;-55
2021/03/21 12:04:03;;;;;;;5.80;2.30;;;;;;;;;;5072927;28;20040;-55
2021/03/21 12:06:30;;;;;;;3.73;1.63;;;;;;;;;;5073235;28;20309;-55
2021/03/21 12:08:59;;;;;;;2.50;1.40;;;;;;;;;;5072859;28;20258;-55
2021/03/21 12:11:25;;;;;;;3.80;1.27;;;;;;;;;;5072869;28;20264;-55
2021/03/21 12:13:53;;;;;;;4.80;1.93;;;;;;;;;;5072813;28;20250;-55
2021/03/21 12:16:35;;;;;;;5.17;2.03;;;;;;;;;;5072616;28;20285;-55
2021/03/21 12:19:03;;;;;;;4.97;1.87;;;;;;;;;;5072918;28;20250;-55
2021/03/21 12:21:31;;;;;;;4.03;1.90;;;;;;;;;;5072725;28;20272;-55
2021/03/21 12:23:58;;;;;;;5.80;1.60;;;;;;;;;;5072716;28;20260;-54
2021/03/21 12:26:25;;;;;;;3.90;1.83;;;;;;;;;;5072764;28;20250;-54
2021/03/21 12:28:57;;;;;;;3.50;1.70;;;;;;;;;;5072675;28;20593;-55
2021/03/21 12:31:29;;;;;;;4.30;1.73;;;;;;;;;;5072605;28;20265;-55
2021/03/21 12:33:56;;;;;;;3.77;1.60;;;;;;;;;;5072980;28;20307;-55
2021/03/21 12:36:29;;;;;;;3.27;1.30;;;;;;;;;;5072745;28;20524;-55
2021/03/21 12:39:17;;;;;;;3.93;1.80;;;;;;;;;;5072605;28;20249;-55
2021/03/21 12:41:45;;;;;;;4.37;1.77;;;;;;;;;;5072748;28;20283;-55
2021/03/21 12:44:17;;;;;;;4.57;1.47;;;;;;;;;;5072457;28;20265;-55
2021/03/21 12:46:44;;;;;;;3.23;1.60;;;;;;;;;;5072693;28;20248;-55
2021/03/21 12:49:28;;;;;;;3.40;2.10;;;;;;;;;;5072564;28;20289;-55
2021/03/21 12:52:05;;;;;;;6.77;1.80;;;;;;;;;;5072590;28;20241;-55
2021/03/21 12:54:32;;;;;;;2.53;1.50;;;;;;;;;;5072388;28;20319;-55
2021/03/21 12:56:58;;;;;;;3.53;1.60;;;;;;;;;;5072424;28;20257;-55
2021/03/21 12:59:25;;;;;;;3.87;1.37;;;;;;;;;;5072394;28;20249;-55
2021/03/21 13:01:52;;;;;;;3.17;1.57;;;;;;;;;;5072387;28;20289;-55
2021/03/21 13:04:19;;;;;;;6.67;1.70;;;;;;;;;;5072591;28;20292;-55
2021/03/21 13:06:45;;;;;;;6.53;2.60;;;;;;;;;;5072390;28;20396;-54
2021/03/21 13:09:12;;;;;;;11.30;4.07;;;;;;;;;;5072308;28;20329;-55
2021/03/21 13:11:39;;;;;;;8.70;4.33;;;;;;;;;;5054227;28;20268;-55
2021/03/21 13:14:06;;;;;;;8.20;3.80;;;;;;;;;;5072337;28;20738;-54
2021/03/21 13:16:33;;;;;;;9.63;5.00;;;;;;;;;;5072156;28;20257;-54
2021/03/21 13:19:00;;;;;;;12.97;6.30;;;;;;;;;;5072278;28;20289;-55
2021/03/21 13:21:27;;;;;;;13.63;7.90;;;;;;;;;;5072155;28;20349;-54
2021/03/21 13:23:53;;;;;;;12.63;6.00;;;;;;;;;;5072409;28;20322;-55
2021/03/21 13:26:20;;;;;;;6.27;3.73;;;;;;;;;;5072256;28;20598;-55
2021/03/21 13:28:47;;;;;;;7.07;3.00;;;;;;;;;;5072960;28;20747;-55
2021/03/21 13:31:14;;;;;;;8.13;2.40;;;;;;;;;;5075672;28;20591;-55
2021/03/21 13:33:43;;;;;;;5.97;2.40;;;;;;;;;;5076060;28;20297;-55
2021/03/21 13:36:11;;;;;;;10.20;2.63;;;;;;;;;;5075740;28;20328;-55
2021/03/21 13:38:38;;;;;;;4.63;2.10;;;;;;;;;;5075721;28;20679;-55
2021/03/21 13:41:05;;;;;;;3.87;2.23;;;;;;;;;;5075550;28;20273;-55
2021/03/21 13:43:32;;;;;;;4.70;2.30;;;;;;;;;;5075515;28;20827;-55
2021/03/21 13:46:00;;;;;;;9.47;2.03;;;;;;;;;;5075374;28;20577;-55
2021/03/21 13:48:28;;;;;;;4.17;2.17;;;;;;;;;;5075391;28;20257;-55
2021/03/21 13:50:56;;;;;;;8.40;2.60;;;;;;;;;;5075332;28;20242;-55
2021/03/21 13:53:28;;;;;;;9.73;3.37;;;;;;;;;;5075335;28;20260;-55
2021/03/21 13:55:56;;;;;;;7.03;2.50;;;;;;;;;;5075396;28;20256;-56
2021/03/21 13:58:23;;;;;;;7.20;2.60;;;;;;;;;;5075179;28;20254;-55
2021/03/21 14:00:50;;;;;;;6.33;2.70;;;;;;;;;;5057232;28;20751;-55
2021/03/21 14:03:17;;;;;;;8.63;3.47;;;;;;;;;;5075040;28;20285;-55
2021/03/21 14:05:44;;;;;;;10.93;4.10;;;;;;;;;;5075107;28;20242;-55
2021/03/21 14:08:11;;;;;;;8.67;3.73;;;;;;;;;;5075058;28;20611;-55
2021/03/21 14:10:39;;;;;;;7.67;3.33;;;;;;;;;;5074964;28;20770;-55
2021/03/21 14:13:06;;;;;;;5.57;2.97;;;;;;;;;;5075028;28;20258;-55
2021/03/21 14:15:35;;;;;;;8.43;3.77;;;;;;;;;;5074936;28;20254;-55
2021/03/21 14:18:02;;;;;;;8.73;3.20;;;;;;;;;;5056895;28;20798;-56
2021/03/21 14:20:30;;;;;;;8.53;3.37;;;;;;;;;;5074784;28;20608;-56
2021/03/21 14:22:57;;;;;;;8.70;2.90;;;;;;;;;;5075047;28;20372;-55
2021/03/21 14:25:25;;;;;;;7.97;3.07;;;;;;;;;;5074754;28;20025;-56
2021/03/21 14:27:53;;;;;;;15.43;3.83;;;;;;;;;;5074641;28;20020;-56
2021/03/21 14:30:21;;;;;;;6.50;2.73;;;;;;;;;;5074551;28;20029;-57
2021/03/21 14:32:48;;;;;;;6.43;3.27;;;;;;;;;;5074458;28;20056;-57
2021/03/21 14:35:15;;;;;;;7.17;2.40;;;;;;;;;;5074908;28;20135;-56
2021/03/21 14:37:42;;;;;;;6.63;2.63;;;;;;;;;;5056599;28;20498;-56
2021/03/21 14:40:10;;;;;;;5.03;2.63;;;;;;;;;;5074411;28;20543;-57
2021/03/21 14:42:37;;;;;;;5.30;2.17;;;;;;;;;;5074211;28;20037;-57
2021/03/21 14:45:10;;;;;;;5.97;2.60;;;;;;;;;;5074331;28;20031;-57
2021/03/21 14:47:37;;;;;;;3.47;1.83;;;;;;;;;;5074256;28;20483;-57
2021/03/21 14:50:08;;;;;;;10.37;2.30;;;;;;;;;;5074174;28;20028;-57
2021/03/21 14:52:36;;;;;;;6.83;2.80;;;;;;;;;;5074237;28;20528;-57
2021/03/21 14:55:03;;;;;;;3.80;2.17;;;;;;;;;;5074418;28;20521;-55
2021/03/21 14:57:30;;;;;;;5.80;2.53;;;;;;;;;;5074063;28;20024;-57
2021/03/21 14:59:57;;;;;;;10.90;2.63;;;;;;;;;;5074080;28;20360;-57
2021/03/21 15:02:27;;;;;;;4.60;1.87;;;;;;;;;;5073991;28;20035;-57
2021/03/21 15:04:54;;;;;;;8.33;2.33;;;;;;;;;;5074047;28;20071;-57
2021/03/21 15:07:21;;;;;;;9.27;2.43;;;;;;;;;;5073912;28;20487;-57
2021/03/21 15:09:48;;;;;;;6.00;2.50;;;;;;;;;;5073830;28;20422;-57
2021/03/21 15:12:15;;;;;;;4.37;2.00;;;;;;;;;;5073775;28;20379;-57
2021/03/21 15:14:41;;;;;;;6.33;2.17;;;;;;;;;;5073809;28;20021;-58
2021/03/21 15:17:08;;;;;;;13.17;2.97;;;;;;;;;;5073816;28;20077;-57
2021/03/21 15:19:35;;;;;;;5.03;2.17;;;;;;;;;;5073788;28;20028;-57
2021/03/21 15:22:02;;;;;;;5.40;2.43;;;;;;;;;;5073590;28;20033;-57
2021/03/21 15:24:29;;;;;;;5.30;2.73;;;;;;;;;;5073614;28;20463;-57
2021/03/21 15:26:57;;;;;;;5.53;1.93;;;;;;;;;;5073460;28;20525;-58
2021/03/21 15:29:24;;;;;;;7.63;2.70;;;;;;;;;;5073600;28;20020;-58
2021/03/21 15:31:51;;;;;;;7.10;2.60;;;;;;;;;;5073275;28;20470;-57
2021/03/21 15:34:18;;;;;;;6.63;2.67;;;;;;;;;;5073683;28;20419;-57
2021/03/21 15:36:45;;;;;;;6.20;2.53;;;;;;;;;;5073297;28;20529;-57
2021/03/21 15:39:12;;;;;;;9.80;2.40;;;;;;;;;;5073310;28;20031;-57
2021/03/21 15:41:39;;;;;;;7.57;2.70;;;;;;;;;;5073243;28;20051;-58
2021/03/21 15:44:07;;;;;;;5.50;2.30;;;;;;;;;;5073255;28;20040;-57